createdAt,value
2022-10-31T00:01:19.409Z,12.14
2022-10-31T00:04:21.338Z,12.19
2022-10-31T00:07:22.891Z,12.12
2022-10-31T00:10:24.588Z,12.07
2022-10-31T00:13:26.575Z,12.19
2022-10-31T00:16:29.595Z,12.14
2022-10-31T00:19:31.428Z,12.16
2022-10-31T00:22:33.334Z,12.18
2022-10-31T00:25:37.524Z,12.31
2022-10-31T00:28:39.491Z,12.22
2022-10-31T00:31:41.390Z,12.12
2022-10-31T00:34:43.353Z,12.30
2022-10-31T00:37:48.341Z,12.15
2022-10-31T00:40:49.959Z,11.75
2022-10-31T00:43:51.932Z,11.85
2022-10-31T00:46:53.695Z,11.93
2022-10-31T00:49:55.432Z,11.98
2022-10-31T00:52:58.055Z,11.91
2022-10-31T00:55:59.661Z,11.65
2022-10-31T00:59:01.469Z,11.80
2022-10-31T01:02:03.441Z,11.57
2022-10-31T01:05:06.033Z,11.62
2022-10-31T01:08:08.007Z,11.73
2022-10-31T01:11:20.516Z,11.48
2022-10-31T01:14:22.283Z,11.74
2022-10-31T01:17:23.842Z,11.37
2022-10-31T01:20:25.580Z,11.65
2022-10-31T01:23:28.155Z,11.75
2022-10-31T01:26:32.811Z,11.42
2022-10-31T01:29:34.721Z,11.39
2022-10-31T01:32:36.273Z,11.60
2022-10-31T01:35:37.999Z,11.55
2022-10-31T01:38:39.990Z,11.61
2022-10-31T01:41:48.411Z,11.64
2022-10-31T01:45:02.003Z,11.65
2022-10-31T01:48:03.976Z,11.76
2022-10-31T01:51:06.976Z,11.76
2022-10-31T01:54:13.438Z,11.58
2022-10-31T01:57:16.901Z,11.61
2022-10-31T02:00:21.280Z,11.53
2022-10-31T02:03:24.044Z,11.60
2022-10-31T02:06:37.170Z,11.48
2022-10-31T02:09:40.936Z,11.51
2022-10-31T02:12:43.174Z,11.30
2022-10-31T02:15:47.281Z,11.55
2022-10-31T02:18:49.280Z,11.30
2022-10-31T02:22:10.644Z,11.12
2022-10-31T02:25:43.095Z,11.38
2022-10-31T02:29:00.003Z,11.52
2022-10-31T02:32:18.988Z,11.51
2022-10-31T02:35:59.318Z,11.62
2022-10-31T02:39:22.667Z,11.48
2022-10-31T02:42:43.750Z,11.36
2022-10-31T02:45:53.554Z,11.39
2022-10-31T02:49:01.450Z,11.33
2022-10-31T02:52:03.306Z,11.37
2022-10-31T02:55:31.089Z,11.29
2022-10-31T02:58:38.790Z,11.51
2022-10-31T03:01:58.839Z,11.54
2022-10-31T03:05:15.171Z,11.58
2022-10-31T03:08:26.105Z,11.51
2022-10-31T03:11:37.941Z,11.59
2022-10-31T03:14:52.714Z,11.70
2022-10-31T03:18:08.748Z,11.61
2022-10-31T03:21:26.774Z,11.74
2022-10-31T03:24:31.853Z,11.71
2022-10-31T03:27:36.625Z,11.65
2022-10-31T03:30:42.479Z,11.70
2022-10-31T03:33:47.074Z,11.44
2022-10-31T03:36:52.402Z,11.65
2022-10-31T03:39:56.255Z,11.65
2022-10-31T03:43:03.749Z,11.71
2022-10-31T03:46:06.813Z,11.74
2022-10-31T03:49:08.719Z,11.82
2022-10-31T03:52:31.416Z,11.68
2022-10-31T03:55:37.113Z,11.71
2022-10-31T03:58:47.787Z,11.80
2022-10-31T04:01:53.243Z,11.84
2022-10-31T04:04:55.377Z,11.67
2022-10-31T04:08:03.986Z,11.51
2022-10-31T04:11:07.903Z,11.41
2022-10-31T04:14:11.001Z,11.22
2022-10-31T04:17:16.415Z,11.44
2022-10-31T04:20:18.943Z,11.34
2022-10-31T04:23:24.645Z,11.44
2022-10-31T04:26:26.540Z,11.46
2022-10-31T04:29:28.205Z,11.55
2022-10-31T04:32:29.941Z,11.47
2022-10-31T04:35:31.750Z,11.37
2022-10-31T04:38:33.385Z,11.39
2022-10-31T04:41:35.221Z,11.37
2022-10-31T04:44:37.063Z,11.23
2022-10-31T04:47:38.842Z,11.22
2022-10-31T04:50:40.592Z,11.29
2022-10-31T04:53:42.246Z,11.30
2022-10-31T04:56:43.958Z,11.28
2022-10-31T04:59:45.754Z,11.17
2022-10-31T05:02:55.337Z,11.26
2022-10-31T05:05:57.132Z,11.41
2022-10-31T05:08:58.920Z,11.46
2022-10-31T05:12:00.467Z,11.51
2022-10-31T05:15:02.222Z,11.43
2022-10-31T05:18:04.538Z,11.47
2022-10-31T05:21:06.299Z,11.53
2022-10-31T05:24:08.327Z,11.49
2022-10-31T05:27:09.891Z,11.47
2022-10-31T05:30:14.275Z,11.32
2022-10-31T05:33:15.852Z,11.45
2022-10-31T05:36:17.501Z,11.17
2022-10-31T05:39:19.395Z,11.06
2022-10-31T05:42:21.286Z,11.03
2022-10-31T05:45:23.957Z,11.17
2022-10-31T05:48:25.566Z,11.30
2022-10-31T05:51:27.635Z,11.45
2022-10-31T05:54:29.301Z,11.53
2022-10-31T05:57:33.327Z,11.53
2022-10-31T06:00:36.305Z,11.34
2022-10-31T06:03:38.134Z,11.45
2022-10-31T06:06:39.874Z,11.59
2022-10-31T06:09:42.218Z,11.66
2022-10-31T06:12:43.911Z,11.72
2022-10-31T06:15:46.260Z,11.44
2022-10-31T06:18:48.655Z,11.59
2022-10-31T06:21:50.394Z,11.57
2022-10-31T06:24:54.810Z,11.64
2022-10-31T06:27:58.437Z,11.85
2022-10-31T06:30:59.969Z,11.82
2022-10-31T06:34:01.808Z,11.91
2022-10-31T06:37:03.517Z,11.96
2022-10-31T06:40:06.150Z,11.93
2022-10-31T06:43:07.946Z,11.80
2022-10-31T06:46:09.669Z,11.57
2022-10-31T06:49:11.523Z,11.56
2022-10-31T06:52:13.088Z,11.44
2022-10-31T06:55:14.999Z,11.52
2022-10-31T06:58:16.782Z,11.43
2022-10-31T07:01:18.635Z,11.42
2022-10-31T07:04:20.643Z,11.44
2022-10-31T07:07:22.740Z,11.44
2022-10-31T07:10:26.782Z,11.53
2022-10-31T07:13:28.389Z,11.36
2022-10-31T07:16:30.118Z,11.37
2022-10-31T07:19:31.927Z,11.59
2022-10-31T07:22:35.959Z,11.51
2022-10-31T07:25:38.821Z,11.49
2022-10-31T07:28:40.750Z,11.49
2022-10-31T07:31:42.671Z,11.61
2022-10-31T07:34:47.367Z,11.68
2022-10-31T07:37:50.128Z,11.88
2022-10-31T07:40:55.976Z,11.84
2022-10-31T07:43:57.765Z,11.92
2022-10-31T07:46:59.556Z,11.49
2022-10-31T07:50:01.187Z,11.51
2022-10-31T07:53:11.160Z,11.66
2022-10-31T07:56:12.944Z,11.66
2022-10-31T07:59:14.853Z,11.84
2022-10-31T08:02:16.706Z,11.77
2022-10-31T08:05:18.669Z,11.88
2022-10-31T08:08:20.734Z,11.93
2022-10-31T08:11:22.540Z,11.91
2022-10-31T08:14:27.178Z,11.80
2022-10-31T08:17:29.134Z,11.94
2022-10-31T08:20:31.159Z,11.78
2022-10-31T08:23:32.987Z,11.85
2022-10-31T08:26:34.765Z,11.92
2022-10-31T08:29:36.614Z,11.98
2022-10-31T08:32:38.480Z,12.12
2022-10-31T08:35:40.667Z,11.98
2022-10-31T08:38:42.416Z,11.89
2022-10-31T08:41:45.342Z,11.84
2022-10-31T08:44:47.080Z,12.08
2022-10-31T08:47:48.822Z,12.06
2022-10-31T08:50:50.634Z,12.04
2022-10-31T08:53:52.421Z,11.97
2022-10-31T08:56:57.290Z,11.81
2022-10-31T08:59:59.209Z,11.73
2022-10-31T09:03:06.595Z,11.61
2022-10-31T09:06:10.204Z,11.34
2022-10-31T09:09:12.199Z,10.88
2022-10-31T09:12:13.766Z,11.13
2022-10-31T09:15:15.509Z,11.29
2022-10-31T09:18:22.846Z,11.07
2022-10-31T09:21:24.662Z,11.19
2022-10-31T09:24:26.402Z,11.02
2022-10-31T09:27:28.323Z,11.27
2022-10-31T09:30:32.591Z,11.23
2022-10-31T09:33:34.267Z,11.52
2022-10-31T09:36:37.401Z,11.66
2022-10-31T09:39:39.181Z,11.90
2022-10-31T09:43:26.567Z,12.09
2022-10-31T09:46:40.843Z,11.87
2022-10-31T09:50:00.816Z,12.08
2022-10-31T09:53:14.880Z,11.71
2022-10-31T09:56:20.841Z,11.38
2022-10-31T09:59:31.924Z,11.24
2022-10-31T10:02:58.387Z,11.43
2022-10-31T10:06:07.958Z,11.75
2022-10-31T10:09:11.453Z,11.88
2022-10-31T10:12:38.545Z,12.03
2022-10-31T10:15:55.817Z,12.07
2022-10-31T10:19:12.161Z,11.94
2022-10-31T10:22:28.755Z,11.82
2022-10-31T10:25:43.312Z,11.64
2022-10-31T10:28:55.819Z,11.96
2022-10-31T10:32:02.588Z,12.10
2022-10-31T10:35:16.116Z,12.15
2022-10-31T10:38:31.194Z,12.12
2022-10-31T10:41:34.951Z,12.25
2022-10-31T10:45:00.502Z,12.18
2022-10-31T10:48:15.504Z,11.56
2022-10-31T10:51:46.342Z,11.45
2022-10-31T10:54:47.676Z,11.07
2022-10-31T10:58:07.681Z,11.17
2022-10-31T11:01:16.918Z,11.24
2022-10-31T11:04:35.086Z,11.10
2022-10-31T11:07:41.204Z,11.22
2022-10-31T11:10:43.088Z,11.20
2022-10-31T11:13:50.439Z,11.23
2022-10-31T11:17:10.048Z,11.34
2022-10-31T11:20:17.885Z,11.77
2022-10-31T11:23:22.940Z,11.56
2022-10-31T11:26:24.811Z,11.19
2022-10-31T11:29:27.042Z,11.31
2022-10-31T11:32:30.752Z,11.50
2022-10-31T11:35:32.751Z,11.55
2022-10-31T11:38:44.537Z,11.60
2022-10-31T11:41:47.526Z,11.83
2022-10-31T11:44:51.186Z,12.04
2022-10-31T11:47:59.770Z,12.09
2022-10-31T11:51:01.833Z,12.16
2022-10-31T11:54:05.704Z,12.28
2022-10-31T11:57:32.757Z,12.27
2022-10-31T12:00:39.502Z,12.04
2022-10-31T12:03:56.346Z,11.75
2022-10-31T12:06:58.531Z,11.67
2022-10-31T12:10:00.480Z,11.64
2022-10-31T12:13:31.257Z,11.37
2022-10-31T12:17:18.058Z,11.50
2022-10-31T12:20:41.222Z,11.29
2022-10-31T12:23:55.329Z,11.21
2022-10-31T12:27:25.877Z,11.45
2022-10-31T12:31:05.054Z,11.63
2022-10-31T12:34:25.272Z,12.03
2022-10-31T12:37:51.379Z,11.98
2022-10-31T12:41:21.431Z,12.02
2022-10-31T12:44:37.681Z,12.31
2022-10-31T12:48:08.896Z,12.22
2022-10-31T12:51:28.387Z,11.85
2022-10-31T12:55:04.353Z,11.64
2022-10-31T12:58:18.422Z,11.63
2022-10-31T13:01:29.120Z,11.74
2022-10-31T13:04:53.506Z,11.58
2022-10-31T13:08:06.266Z,11.53
2022-10-31T13:11:11.308Z,11.62
2022-10-31T13:14:36.346Z,11.80
2022-10-31T13:17:46.717Z,11.57
2022-10-31T13:20:54.726Z,11.45
2022-10-31T13:24:02.811Z,11.53
2022-10-31T13:27:14.391Z,11.70
2022-10-31T13:30:22.168Z,11.68
2022-10-31T13:33:40.145Z,11.76
2022-10-31T13:36:46.556Z,11.41
2022-10-31T13:40:15.354Z,11.24
2022-10-31T13:43:36.170Z,11.05
2022-10-31T13:46:40.587Z,10.96
2022-10-31T13:49:43.067Z,11.06
2022-10-31T13:53:10.244Z,11.43
2022-10-31T13:56:17.801Z,11.65
2022-10-31T13:59:23.819Z,11.55
2022-10-31T14:02:35.338Z,11.46
2022-10-31T14:05:37.727Z,11.60
2022-10-31T14:08:48.048Z,11.54
2022-10-31T14:11:51.592Z,11.40
2022-10-31T14:14:58.195Z,11.27
2022-10-31T14:18:03.322Z,11.37
2022-10-31T14:21:27.777Z,11.19
2022-10-31T14:24:40.792Z,11.32
2022-10-31T14:27:47.779Z,11.37
2022-10-31T14:30:58.839Z,11.48
2022-10-31T14:34:02.697Z,11.27
2022-10-31T14:37:22.940Z,11.19
2022-10-31T14:40:36.722Z,11.40
2022-10-31T14:43:56.783Z,11.33
2022-10-31T14:47:04.178Z,11.19
2022-10-31T14:50:14.496Z,10.97
2022-10-31T14:53:21.943Z,11.22
2022-10-31T14:56:26.495Z,10.94
2022-10-31T14:59:34.354Z,10.98
2022-10-31T15:02:59.800Z,11.13
2022-10-31T15:06:10.675Z,11.03
2022-10-31T15:09:22.939Z,10.89
2022-10-31T15:12:40.097Z,11.13
2022-10-31T15:15:42.087Z,10.93
2022-10-31T15:19:07.178Z,10.74
2022-10-31T15:22:15.288Z,11.17
2022-10-31T15:25:27.371Z,10.93
2022-10-31T15:28:29.366Z,10.88
2022-10-31T15:31:32.204Z,10.98
2022-10-31T15:34:43.439Z,10.97
2022-10-31T15:37:45.347Z,10.90
2022-10-31T15:40:55.503Z,10.78
2022-10-31T15:44:03.571Z,10.59
2022-10-31T15:47:16.904Z,10.60
2022-10-31T15:50:28.725Z,10.66
2022-10-31T15:53:37.605Z,10.85
2022-10-31T15:56:39.250Z,10.82
2022-10-31T15:59:46.214Z,10.80
2022-10-31T16:02:47.961Z,10.82
2022-10-31T16:05:55.512Z,10.67
2022-10-31T16:08:57.306Z,10.74
2022-10-31T16:12:00.469Z,10.79
2022-10-31T16:15:02.885Z,10.82
2022-10-31T16:18:06.683Z,10.91
2022-10-31T16:21:09.929Z,10.87
2022-10-31T16:24:18.787Z,10.99
2022-10-31T16:27:30.090Z,10.97
2022-10-31T16:30:44.009Z,11.00
2022-10-31T16:33:48.632Z,11.03
2022-10-31T16:36:51.545Z,10.99
2022-10-31T16:39:53.200Z,10.98
2022-10-31T16:42:59.458Z,10.82
2022-10-31T16:46:01.697Z,10.67
2022-10-31T16:49:03.710Z,10.76
2022-10-31T16:52:06.107Z,10.59
2022-10-31T16:55:12.275Z,10.43
2022-10-31T16:58:36.034Z,10.54
2022-10-31T17:01:38.093Z,10.67
2022-10-31T17:04:41.181Z,10.76
2022-10-31T17:07:43.481Z,10.56
2022-10-31T17:10:48.078Z,10.81
2022-10-31T17:13:50.189Z,10.68
2022-10-31T17:16:52.133Z,10.77
2022-10-31T17:19:54.018Z,10.86
2022-10-31T17:22:57.173Z,10.79
2022-10-31T17:26:00.302Z,10.99
2022-10-31T17:29:03.730Z,10.76
2022-10-31T17:32:05.915Z,10.59
2022-10-31T17:35:09.651Z,10.60
2022-10-31T17:38:12.604Z,10.61
2022-10-31T17:41:14.964Z,10.71
2022-10-31T17:44:18.604Z,10.82
2022-10-31T17:47:20.490Z,10.66
2022-10-31T17:50:25.657Z,10.65
2022-10-31T17:53:32.330Z,10.64
2022-10-31T17:56:34.232Z,10.48
2022-10-31T17:59:36.197Z,10.60
2022-10-31T18:02:38.185Z,10.65
2022-10-31T18:05:51.129Z,10.56
2022-10-31T18:09:08.091Z,10.48
2022-10-31T18:12:10.075Z,10.70
2022-10-31T18:15:12.210Z,10.52
2022-10-31T18:18:15.252Z,10.47
2022-10-31T18:21:18.582Z,10.54
2022-10-31T18:24:21.226Z,10.43
2022-10-31T18:27:23.074Z,10.58
2022-10-31T18:30:24.988Z,10.45
2022-10-31T18:33:29.081Z,10.53
2022-10-31T18:36:31.784Z,10.58
2022-10-31T18:39:33.865Z,10.50
2022-10-31T18:42:38.523Z,10.43
2022-10-31T18:45:47.159Z,10.56
2022-10-31T18:48:51.247Z,10.33
2022-10-31T18:51:54.434Z,10.41
2022-10-31T18:54:56.787Z,10.30
2022-10-31T18:57:58.727Z,10.31
2022-10-31T19:01:08.791Z,10.16
2022-10-31T19:04:11.244Z,10.21
2022-10-31T19:07:13.589Z,10.26
2022-10-31T19:10:16.193Z,10.22
2022-10-31T19:13:18.522Z,10.16
2022-10-31T19:16:22.201Z,10.23
2022-10-31T19:19:24.653Z,10.26
2022-10-31T19:22:27.441Z,10.22
2022-10-31T19:25:30.494Z,10.35
2022-10-31T19:28:35.040Z,10.32
2022-10-31T19:31:37.677Z,10.29
2022-10-31T19:34:39.918Z,10.32
2022-10-31T19:37:42.909Z,10.26
2022-10-31T19:40:45.648Z,10.28
2022-10-31T19:43:48.861Z,10.30
2022-10-31T19:46:53.386Z,10.33
2022-10-31T19:49:56.234Z,10.19
2022-10-31T19:52:58.902Z,10.24
2022-10-31T19:56:02.252Z,10.20
2022-10-31T19:59:05.089Z,10.27
2022-10-31T20:02:19.850Z,10.47
2022-10-31T20:05:21.790Z,10.49
2022-10-31T20:08:25.317Z,10.47
2022-10-31T20:11:29.267Z,10.23
2022-10-31T20:14:31.884Z,10.29
2022-10-31T20:17:34.312Z,10.19
2022-10-31T20:20:36.917Z,10.13
2022-10-31T20:23:40.876Z,10.04
2022-10-31T20:26:42.926Z,10.02
2022-10-31T20:29:45.007Z,9.97
2022-10-31T20:32:50.036Z,10.04
2022-10-31T20:35:52.723Z,10.13
2022-10-31T20:38:55.040Z,9.96
2022-10-31T20:41:57.607Z,9.98
2022-10-31T20:45:02.401Z,9.92
2022-10-31T20:48:04.968Z,10.02
2022-10-31T20:54:23.899Z,9.91
2022-10-31T20:57:26.210Z,10.22
2022-10-31T21:00:28.540Z,10.07
2022-10-31T21:03:30.658Z,10.25
2022-10-31T21:06:32.889Z,10.09
2022-10-31T21:09:34.740Z,10.10
2022-10-31T21:12:36.681Z,10.06
2022-10-31T21:15:38.528Z,9.92
2022-10-31T21:18:42.494Z,9.94
2022-10-31T21:21:44.426Z,9.93
2022-10-31T21:24:46.494Z,9.89
2022-10-31T21:27:48.676Z,9.98
2022-10-31T21:30:51.978Z,10.00
2022-10-31T21:33:54.559Z,10.03
2022-10-31T21:36:56.359Z,9.96
2022-10-31T21:39:58.263Z,9.98
2022-10-31T21:43:00.460Z,9.95
2022-10-31T21:46:07.947Z,10.04
2022-10-31T21:49:10.415Z,9.92
2022-10-31T21:52:12.392Z,10.06
2022-10-31T21:55:14.121Z,10.14
2022-10-31T21:58:15.910Z,9.89
2022-10-31T22:01:18.592Z,10.12
2022-10-31T22:04:20.544Z,10.16
2022-10-31T22:07:22.090Z,10.12
2022-10-31T22:10:23.869Z,10.16
2022-10-31T22:13:25.532Z,10.10
2022-10-31T22:16:29.478Z,10.12
2022-10-31T22:19:31.337Z,9.98
2022-10-31T22:22:33.145Z,9.95
2022-10-31T22:25:37.526Z,9.98
2022-10-31T22:28:39.202Z,9.98
2022-10-31T22:31:44.055Z,9.94
2022-10-31T22:34:45.819Z,9.89
2022-10-31T22:37:47.376Z,9.77
2022-10-31T22:40:48.933Z,9.69
2022-10-31T22:43:51.543Z,9.66
2022-10-31T22:46:53.412Z,9.72
2022-10-31T22:49:55.386Z,9.81
2022-10-31T22:52:57.156Z,9.82
2022-10-31T22:55:58.711Z,9.83
2022-10-31T22:59:01.390Z,9.62
2022-10-31T23:02:06.039Z,9.71
2022-10-31T23:05:10.062Z,9.72
2022-10-31T23:08:11.655Z,9.79
2022-10-31T23:11:33.827Z,9.79
2022-10-31T23:14:35.666Z,9.83
2022-10-31T23:17:39.443Z,9.74
2022-10-31T23:23:47.807Z,9.61
2022-10-31T23:27:09.589Z,9.65
2022-10-31T23:30:11.504Z,9.70
2022-10-31T23:33:13.409Z,9.62
2022-10-31T23:36:15.441Z,9.68
2022-10-31T23:39:20.012Z,9.82
2022-10-31T23:42:25.670Z,10.01
2022-10-31T23:45:28.617Z,9.71
2022-10-31T23:48:30.686Z,9.68
2022-10-31T23:51:32.500Z,9.77
2022-10-31T23:54:34.621Z,9.81
2022-10-31T23:57:36.430Z,9.92
